MCP Nicosia — C4WM2 — position and weather

sailwx.info

Track history (hours):
 
Tides and Currents Weather Stations Pressure Air Temp Water Temp Dewpoint Dewpoint Depression Visibility Wind Speed Wind Dir Waves Ship Positions

MCP Nicosia

Last reported at 2018-Feb-17 20:00 UTC. Time now 2018-Feb-17 20:10 UTC.
Position N 53°59' E 008°02'.

Length 117 m; draft 6 m.

Type: Cargo ship. MMSI: 212741000.

Date/timePositionNaut miles runAvg speedWind from/ knotsBaromVisibWave heightAir tempDewpointWater temp
2018-Feb-17 20:00N 53°59' E 008°02'9210.2
2018-Feb-17 10:55N 53°35' E 005°31'511.4
2018-Feb-17 10:26N 53°33' E 005°23'511.6
2018-Feb-17 09:59N 53°31' E 005°15'612.0
2018-Feb-17 09:29N 53°29' E 005°05'612.5
2018-Feb-17 09:00N 53°27' E 004°56'711.9
2018-Feb-17 08:26N 53°25' E 004°45'511.9
2018-Feb-17 08:00N 53°21' E 004°40'612.2
2018-Feb-17 07:29N 53°15' E 004°35'612.8
2018-Feb-17 06:59N 53°09' E 004°30'713.2
2018-Feb-17 06:29N 53°03' E 004°25'613.2
2018-Feb-17 06:00N 52°58' E 004°20'612.9
2018-Feb-17 05:30N 52°52' E 004°16'712.5
2018-Feb-17 04:59N 52°47' E 004°09'612.4
2018-Feb-17 04:30N 52°43' E 004°02'712.3
2018-Feb-17 03:56N 52°37' E 003°55'512.0
2018-Feb-17 03:30N 52°34' E 003°48'612.4
2018-Feb-17 03:00N 52°29' E 003°41'612.3
2018-Feb-17 02:30N 52°25' E 003°34'612.0
2018-Feb-17 02:00N 52°21' E 003°27'611.7
2018-Feb-17 01:29N 52°17' E 003°20'511.4
2018-Feb-17 01:00N 52°13' E 003°14'510.9
2018-Feb-17 00:30N 52°08' E 003°08'510.5
2018-Feb-17 00:00N 52°04' E 003°03'510.2
2018-Feb-16 23:29N 52°00' E 002°57'5 9.9
2018-Feb-16 23:00N 51°57' E 002°52'5 9.5
2018-Feb-16 22:30N 51°53' E 002°47'5 9.3
2018-Feb-16 22:00N 51°49' E 002°42'5 9.2
2018-Feb-16 21:28N 51°46' E 002°37'4 9.1
2018-Feb-16 20:59N 51°42' E 002°32'5 9.0
2018-Feb-16 20:28N 51°39' E 002°28'5 9.1
2018-Feb-16 19:59N 51°35' E 002°23'4 9.3
2018-Feb-16 19:30N 51°32' E 002°18'5 9.6
2018-Feb-16 18:59N 51°28' E 002°13'5 9.8
2018-Feb-16 18:30N 51°25' E 002°08'510.2
2018-Feb-16 18:00N 51°21' E 002°03'510.2
2018-Feb-16 17:31N 51°17' E 001°57'510.5
2018-Feb-16 17:01N 51°14' E 001°51'510.6
2018-Feb-16 16:30N 51°10' E 001°45'510.4
2018-Feb-16 16:00N 51°06' E 001°40'5 9.9
2018-Feb-16 15:30N 51°02' E 001°35'510.7
2018-Feb-16 15:00N 50°58' E 001°29'6310.1
2018-Feb-16 08:47N 50°20' E 000°11'412.2
2018-Feb-16 08:28N 50°19' E 000°05'711.9
2018-Feb-16 07:52N 50°17' W 000°06'614.3
2018-Feb-16 07:25N 50°16' W 000°16'2710.5
2018-Feb-16 04:48N 50°09' W 000°57'3 9.3
2018-Feb-16 04:30N 50°08' W 001°01'4 8.7
2018-Feb-16 04:00N 50°07' W 001°08'4 8.3
2018-Feb-16 03:30N 50°06' W 001°14'4 7.8
2018-Feb-16 03:00N 50°05' W 001°20'4 7.3
2018-Feb-16 02:30N 50°04' W 001°26'4 7.3
2018-Feb-16 02:01N 50°03' W 001°31'4 7.3
2018-Feb-16 01:30N 50°02' W 001°37'4 7.0
2018-Feb-16 01:00N 50°01' W 001°42'4 7.6
2018-Feb-16 00:30N 49°60' W 001°47'4 8.2
2018-Feb-16 00:01N 49°59' W 001°53'5 9.0
2018-Feb-15 23:29N 49°57' W 002°01'710.2
2018-Feb-15 22:46N 49°56' W 002°12'12711.1
2018-Feb-15 11:17N 48°59' W 005°07'1210.8
2018-Feb-15 10:11N 48°52' W 005°22'210.6
2018-Feb-15 10:00N 48°51' W 005°24'1410.7
2018-Feb-15 08:41N 48°42' W 005°41'310.8
2018-Feb-15 08:25N 48°40' W 005°43'3611.3
2018-Feb-15 05:13N 48°08' W 006°08'1212.6
2018-Feb-15 04:14N 47°56' W 006°16'413.1
2018-Feb-15 03:56N 47°53' W 006°19'3413.3
2018-Feb-15 01:22N 47°23' W 006°43'  
2018-Feb-10 20:45N 28°46' W 015°06'311.1
2018-Feb-10 20:29N 28°43' W 015°07'611.0
2018-Feb-10 19:58N 28°37' W 015°08'511.0
2018-Feb-10 19:30N 28°32' W 015°09'611.2
2018-Feb-10 19:00N 28°27' W 015°11'611.4
2018-Feb-10 18:30N 28°21' W 015°12'5 9.5
2018-Feb-10 18:00N 28°16' W 015°13'0 0.7
2018-Feb-10 17:30N 28°17' W 015°13'1 1.3
2018-Feb-10 17:00N 28°18' W 015°13'1 1.9
2018-Feb-10 16:30N 28°17' W 015°14'2 3.1
2018-Feb-10 16:00N 28°16' W 015°15'0 1.0
2018-Feb-10 15:30N 28°16' W 015°15'4 7.0
2018-Feb-10 14:59N 28°14' W 015°18'611.4
2018-Feb-10 14:30N 28°09' W 015°21'4 7.0
2018-Feb-10 13:59N 28°08' W 015°25'1 1.0
2018-Feb-10 13:19N 28°08' W 015°25'0 0.0
2018-Feb-10 12:52N 28°08' W 015°25'0 0.0
2018-Feb-10 12:22N 28°08' W 015°25'0 0.0
2018-Feb-10 11:52N 28°08' W 015°25'0 0.0
2018-Feb-10 11:22N 28°08' W 015°25'0 0.0
2018-Feb-10 10:49N 28°08' W 015°25'0 0.0
2018-Feb-10 10:22N 28°08' W 015°25'0 0.0
2018-Feb-10 09:52N 28°08' W 015°25'0 0.0
2018-Feb-10 09:25N 28°08' W 015°25'0 0.0
2018-Feb-10 08:55N 28°08' W 015°25'0 0.0
2018-Feb-10 08:25N 28°08' W 015°25'0 0.0
2018-Feb-10 07:52N 28°08' W 015°25'0 1.1
2018-Feb-10 07:30N 28°08' W 015°25'2 4.2
2018-Feb-10 07:00N 28°07' W 015°23'2 4.7
2018-Feb-10 06:30N 28°05' W 015°21'3 6.3
2018-Feb-10 06:00N 28°03' W 015°19'3 5.7
2018-Feb-10 05:30N 28°01' W 015°17'4 8.3
2018-Feb-10 05:00N 27°57' W 015°15'510.4
2018-Feb-10 04:30N 27°52' W 015°16'510.1
2018-Feb-10 03:59N 27°46' W 015°17'  
Track history (hours):
 
Tides and Currents Weather Stations Pressure Air Temp Water Temp Dewpoint Dewpoint Depression Visibility Wind Speed Wind Dir Waves Ship Positions

MCP Nicosia

Last reported at 2018-Feb-17 20:00 UTC. Time now 2018-Feb-17 20:10 UTC.
Position N 53°59' E 008°02'.

Length 117 m; draft 6 m.

Type: Cargo ship. MMSI: 212741000.

Date/timePositionNaut miles runAvg speedWind from/ knotsBaromVisibWave heightAir tempDewpointWater temp
2018-Feb-17 20:00N 53°59' E 008°02'9210.2
2018-Feb-17 10:55N 53°35' E 005°31'511.4
2018-Feb-17 10:26N 53°33' E 005°23'511.6
2018-Feb-17 09:59N 53°31' E 005°15'612.0
2018-Feb-17 09:29N 53°29' E 005°05'612.5
2018-Feb-17 09:00N 53°27' E 004°56'711.9
2018-Feb-17 08:26N 53°25' E 004°45'511.9
2018-Feb-17 08:00N 53°21' E 004°40'612.2
2018-Feb-17 07:29N 53°15' E 004°35'612.8
2018-Feb-17 06:59N 53°09' E 004°30'713.2
2018-Feb-17 06:29N 53°03' E 004°25'613.2
2018-Feb-17 06:00N 52°58' E 004°20'612.9
2018-Feb-17 05:30N 52°52' E 004°16'712.5
2018-Feb-17 04:59N 52°47' E 004°09'612.4
2018-Feb-17 04:30N 52°43' E 004°02'712.3
2018-Feb-17 03:56N 52°37' E 003°55'512.0
2018-Feb-17 03:30N 52°34' E 003°48'612.4
2018-Feb-17 03:00N 52°29' E 003°41'612.3
2018-Feb-17 02:30N 52°25' E 003°34'612.0
2018-Feb-17 02:00N 52°21' E 003°27'611.7
2018-Feb-17 01:29N 52°17' E 003°20'511.4
2018-Feb-17 01:00N 52°13' E 003°14'510.9
2018-Feb-17 00:30N 52°08' E 003°08'510.5
2018-Feb-17 00:00N 52°04' E 003°03'510.2
2018-Feb-16 23:29N 52°00' E 002°57'5 9.9
2018-Feb-16 23:00N 51°57' E 002°52'5 9.5
2018-Feb-16 22:30N 51°53' E 002°47'5 9.3
2018-Feb-16 22:00N 51°49' E 002°42'5 9.2
2018-Feb-16 21:28N 51°46' E 002°37'4 9.1
2018-Feb-16 20:59N 51°42' E 002°32'5 9.0
2018-Feb-16 20:28N 51°39' E 002°28'5 9.1
2018-Feb-16 19:59N 51°35' E 002°23'4 9.3
2018-Feb-16 19:30N 51°32' E 002°18'5 9.6
2018-Feb-16 18:59N 51°28' E 002°13'5 9.8
2018-Feb-16 18:30N 51°25' E 002°08'510.2
2018-Feb-16 18:00N 51°21' E 002°03'510.2
2018-Feb-16 17:31N 51°17' E 001°57'510.5
2018-Feb-16 17:01N 51°14' E 001°51'510.6
2018-Feb-16 16:30N 51°10' E 001°45'510.4
2018-Feb-16 16:00N 51°06' E 001°40'5 9.9
2018-Feb-16 15:30N 51°02' E 001°35'510.7
2018-Feb-16 15:00N 50°58' E 001°29'6310.1
2018-Feb-16 08:47N 50°20' E 000°11'412.2
2018-Feb-16 08:28N 50°19' E 000°05'711.9
2018-Feb-16 07:52N 50°17' W 000°06'614.3
2018-Feb-16 07:25N 50°16' W 000°16'2710.5
2018-Feb-16 04:48N 50°09' W 000°57'3 9.3
2018-Feb-16 04:30N 50°08' W 001°01'4 8.7
2018-Feb-16 04:00N 50°07' W 001°08'4 8.3
2018-Feb-16 03:30N 50°06' W 001°14'4 7.8
2018-Feb-16 03:00N 50°05' W 001°20'4 7.3
2018-Feb-16 02:30N 50°04' W 001°26'4 7.3
2018-Feb-16 02:01N 50°03' W 001°31'4 7.3
2018-Feb-16 01:30N 50°02' W 001°37'4 7.0
2018-Feb-16 01:00N 50°01' W 001°42'4 7.6
2018-Feb-16 00:30N 49°60' W 001°47'4 8.2
2018-Feb-16 00:01N 49°59' W 001°53'5 9.0
2018-Feb-15 23:29N 49°57' W 002°01'710.2
2018-Feb-15 22:46N 49°56' W 002°12'12711.1
2018-Feb-15 11:17N 48°59' W 005°07'1210.8
2018-Feb-15 10:11N 48°52' W 005°22'210.6
2018-Feb-15 10:00N 48°51' W 005°24'1410.7
2018-Feb-15 08:41N 48°42' W 005°41'310.8
2018-Feb-15 08:25N 48°40' W 005°43'3611.3
2018-Feb-15 05:13N 48°08' W 006°08'1212.6
2018-Feb-15 04:14N 47°56' W 006°16'413.1
2018-Feb-15 03:56N 47°53' W 006°19'3413.3
2018-Feb-15 01:22N 47°23' W 006°43'  
2018-Feb-10 20:45N 28°46' W 015°06'311.1
2018-Feb-10 20:29N 28°43' W 015°07'611.0
2018-Feb-10 19:58N 28°37' W 015°08'511.0
2018-Feb-10 19:30N 28°32' W 015°09'611.2
2018-Feb-10 19:00N 28°27' W 015°11'611.4
2018-Feb-10 18:30N 28°21' W 015°12'5 9.5
2018-Feb-10 18:00N 28°16' W 015°13'0 0.7
2018-Feb-10 17:30N 28°17' W 015°13'1 1.3
2018-Feb-10 17:00N 28°18' W 015°13'1 1.9
2018-Feb-10 16:30N 28°17' W 015°14'2 3.1
2018-Feb-10 16:00N 28°16' W 015°15'0 1.0
2018-Feb-10 15:30N 28°16' W 015°15'4 7.0
2018-Feb-10 14:59N 28°14' W 015°18'611.4
2018-Feb-10 14:30N 28°09' W 015°21'4 7.0
2018-Feb-10 13:59N 28°08' W 015°25'1 1.0
2018-Feb-10 13:19N 28°08' W 015°25'0 0.0
2018-Feb-10 12:52N 28°08' W 015°25'0 0.0
2018-Feb-10 12:22N 28°08' W 015°25'0 0.0
2018-Feb-10 11:52N 28°08' W 015°25'0 0.0
2018-Feb-10 11:22N 28°08' W 015°25'0 0.0
2018-Feb-10 10:49N 28°08' W 015°25'0 0.0
2018-Feb-10 10:22N 28°08' W 015°25'0 0.0
2018-Feb-10 09:52N 28°08' W 015°25'0 0.0
2018-Feb-10 09:25N 28°08' W 015°25'0 0.0
2018-Feb-10 08:55N 28°08' W 015°25'0 0.0
2018-Feb-10 08:25N 28°08' W 015°25'0 0.0
2018-Feb-10 07:52N 28°08' W 015°25'0 1.1
2018-Feb-10 07:30N 28°08' W 015°25'2 4.2
2018-Feb-10 07:00N 28°07' W 015°23'2 4.7
2018-Feb-10 06:30N 28°05' W 015°21'3 6.3
2018-Feb-10 06:00N 28°03' W 015°19'3 5.7
2018-Feb-10 05:30N 28°01' W 015°17'4 8.3
2018-Feb-10 05:00N 27°57' W 015°15'510.4
2018-Feb-10 04:30N 27°52' W 015°16'510.1
2018-Feb-10 03:59N 27°46' W 015°17'  

Dump ship's entire track history